createdAt,value
2018-12-21T00:02:01.383Z,16.4
2018-12-21T00:07:01.387Z,16.4
2018-12-21T00:17:01.454Z,17.3
2018-12-21T00:22:06.526Z,17.4
2018-12-21T00:27:01.400Z,17.0
2018-12-21T00:32:01.465Z,17.7
2018-12-21T00:37:06.412Z,17.2
2018-12-21T00:42:06.404Z,16.9
2018-12-21T00:47:01.434Z,17.5
2018-12-21T00:52:01.549Z,17.3
2018-12-21T00:57:01.424Z,17.3
2018-12-21T01:02:01.995Z,16.7
2018-12-21T01:07:01.393Z,17.1
2018-12-21T01:12:01.451Z,16.6
2018-12-21T01:17:06.407Z,17.0
2018-12-21T01:22:01.523Z,16.3
2018-12-21T01:27:02.798Z,16.7
2018-12-21T01:32:06.563Z,16.2
2018-12-21T01:37:06.726Z,15.8
2018-12-21T01:42:01.561Z,15.6
2018-12-21T01:52:06.536Z,15.8
2018-12-21T01:57:06.405Z,15.7
2018-12-21T02:02:06.539Z,16.3
2018-12-21T02:07:01.385Z,16.3
2018-12-21T02:12:01.390Z,17.0
2018-12-21T02:17:01.411Z,18.0
2018-12-21T02:22:01.449Z,18.2
2018-12-21T02:32:01.518Z,19.6
2018-12-21T02:37:01.398Z,19.1
2018-12-21T02:42:01.464Z,18.9
2018-12-21T02:47:01.589Z,19.0
2018-12-21T02:52:06.470Z,19.3
2018-12-21T02:57:01.462Z,19.2
2018-12-21T03:02:01.579Z,18.7
2018-12-21T03:07:01.410Z,18.9
2018-12-21T03:12:01.522Z,19.5
2018-12-21T03:17:06.528Z,19.2
2018-12-21T03:22:01.482Z,18.9
2018-12-21T03:27:01.437Z,19.6
2018-12-21T03:32:01.561Z,20.0
2018-12-21T03:37:01.431Z,19.8
2018-12-21T03:42:01.584Z,20.2
2018-12-21T03:47:01.436Z,20.0
2018-12-21T03:52:01.428Z,20.0
2018-12-21T03:57:01.415Z,20.0
2018-12-21T04:02:06.480Z,19.9
2018-12-21T04:07:06.409Z,19.5
2018-12-21T04:12:01.565Z,19.3
2018-12-21T04:17:01.390Z,18.5
2018-12-21T04:22:01.799Z,17.7
2018-12-21T04:27:01.495Z,17.5
2018-12-21T04:32:01.500Z,17.3
2018-12-21T04:37:01.430Z,16.8
2018-12-21T04:42:01.559Z,16.7
2018-12-21T04:47:01.431Z,16.2
2018-12-21T04:52:01.432Z,15.8
2018-12-21T04:57:01.433Z,14.8
2018-12-21T05:02:01.473Z,14.0
2018-12-21T05:07:01.423Z,14.3
2018-12-21T05:12:01.431Z,14.2
2018-12-21T05:17:01.434Z,14.2
2018-12-21T05:22:01.427Z,14.7
2018-12-21T05:27:01.428Z,15.0
2018-12-21T05:32:06.390Z,14.2
2018-12-21T05:37:06.522Z,14.1
2018-12-21T05:42:01.511Z,13.7
2018-12-21T05:47:01.426Z,13.6
2018-12-21T05:52:06.466Z,13.8
2018-12-21T05:57:06.402Z,13.9
2018-12-21T06:02:06.539Z,13.7
2018-12-21T06:07:01.426Z,13.7
2018-12-21T06:12:01.496Z,13.8
2018-12-21T06:17:01.431Z,13.9
2018-12-21T06:22:01.554Z,13.8
2018-12-21T06:27:01.434Z,14.2
2018-12-21T06:32:01.503Z,14.6
2018-12-21T06:38:01.384Z,14.2
2018-12-21T06:48:01.547Z,14.1
2018-12-21T06:53:06.467Z,14.1
2018-12-21T06:58:01.402Z,13.9
2018-12-21T07:03:01.535Z,14.4
2018-12-21T07:08:01.435Z,14.1
2018-12-21T07:13:01.529Z,14.6
2018-12-21T07:18:06.403Z,14.6
2018-12-21T07:23:01.398Z,14.4
2018-12-21T07:28:01.528Z,15.0
2018-12-21T07:33:01.419Z,15.8
2018-12-21T07:38:01.382Z,15.4
2018-12-21T07:43:06.531Z,15.2
2018-12-21T07:48:01.462Z,15.4
2018-12-21T07:53:01.581Z,14.6
2018-12-21T07:58:01.421Z,14.4
2018-12-21T08:03:01.551Z,14.6
2018-12-21T08:08:01.426Z,14.8
2018-12-21T08:13:01.432Z,14.6
2018-12-21T08:18:01.437Z,14.6
2018-12-21T08:23:06.525Z,14.7
2018-12-21T08:28:01.416Z,14.5
2018-12-21T08:33:01.490Z,14.4
2018-12-21T08:38:06.404Z,14.4
2018-12-21T08:43:06.467Z,14.4
2018-12-21T08:48:01.397Z,14.0
2018-12-21T08:58:01.459Z,14.4
2018-12-21T09:03:01.462Z,14.3
2018-12-21T09:08:01.403Z,14.5
2018-12-21T09:13:03.624Z,14.5
2018-12-21T09:18:01.395Z,14.3
2018-12-21T09:23:01.519Z,13.8
2018-12-21T09:28:01.399Z,13.6
2018-12-21T09:33:01.518Z,13.3
2018-12-21T09:38:01.390Z,13.2
2018-12-21T09:43:02.512Z,13.2
2018-12-21T09:48:01.396Z,12.9
2018-12-21T09:53:01.523Z,13.3
2018-12-21T09:58:06.409Z,13.2
2018-12-21T10:03:01.601Z,13.2
2018-12-21T10:08:01.388Z,13.5
2018-12-21T10:13:01.451Z,13.8
2018-12-21T10:18:01.385Z,13.5
2018-12-21T10:23:01.454Z,14.2
2018-12-21T10:28:01.386Z,14.3
2018-12-21T10:33:02.010Z,14.2
2018-12-21T10:38:01.393Z,14.4
2018-12-21T10:43:01.456Z,14.3
2018-12-21T10:48:01.399Z,13.9
2018-12-21T10:53:01.456Z,13.6
2018-12-21T10:58:01.402Z,13.2
2018-12-21T11:03:02.471Z,12.6
2018-12-21T11:08:01.361Z,12.3
2018-12-21T11:13:06.499Z,11.9
2018-12-21T11:18:01.422Z,12.0
2018-12-21T11:23:01.496Z,12.0
2018-12-21T11:28:06.432Z,11.8
2018-12-21T11:33:01.457Z,11.8
2018-12-21T11:38:01.397Z,11.8
2018-12-21T11:43:01.519Z,11.2
2018-12-21T11:48:01.390Z,11.1
2018-12-21T11:53:01.433Z,11.2
2018-12-21T11:58:01.402Z,11.4
2018-12-21T12:03:01.469Z,11.4
2018-12-21T12:08:01.492Z,11.6
2018-12-21T12:13:01.580Z,12.2
2018-12-21T12:18:01.392Z,13.2
2018-12-21T12:23:01.400Z,13.7
2018-12-21T12:28:01.397Z,14.5
2018-12-21T12:33:01.481Z,15.1
2018-12-21T12:38:01.400Z,15.6
2018-12-21T12:43:01.457Z,15.0
2018-12-21T12:48:01.507Z,14.0
2018-12-21T12:53:01.531Z,12.8
2018-12-21T12:58:01.404Z,11.8
2018-12-21T13:03:02.613Z,10.6
2018-12-21T13:08:06.411Z,9.9
2018-12-21T13:13:01.448Z,9.8
2018-12-21T13:18:01.385Z,9.6
2018-12-21T13:23:01.514Z,9.4
2018-12-21T13:28:01.519Z,9.1
2018-12-21T13:33:06.530Z,9.0
2018-12-21T13:38:01.387Z,8.6
2018-12-21T13:48:01.389Z,8.5
2018-12-21T13:53:01.403Z,8.4
2018-12-21T13:58:01.437Z,8.8
2018-12-21T14:03:01.530Z,9.0
2018-12-21T14:08:01.391Z,8.9
2018-12-21T14:13:01.403Z,8.7
2018-12-21T14:18:01.395Z,8.4
2018-12-21T14:23:01.397Z,8.4
2018-12-21T14:28:01.534Z,8.4
2018-12-21T14:33:01.711Z,8.3
2018-12-21T14:38:01.421Z,8.4
2018-12-21T14:43:01.385Z,8.2
2018-12-21T14:48:01.359Z,7.8
2018-12-21T14:53:01.392Z,7.6
2018-12-21T14:58:06.397Z,7.2
2018-12-21T15:03:01.431Z,7.1
2018-12-21T15:08:11.484Z,7.1
2018-12-21T15:13:01.427Z,7.1
2018-12-21T15:18:01.428Z,7.1
2018-12-21T15:28:02.601Z,7.4
2018-12-21T15:33:01.456Z,7.4
2018-12-21T15:38:01.381Z,6.9
2018-12-21T15:43:01.518Z,6.4
2018-12-21T15:53:01.394Z,6.5
2018-12-21T15:58:01.396Z,6.5
2018-12-21T16:03:06.466Z,6.8
2018-12-21T16:08:01.398Z,7.1
2018-12-21T16:13:06.466Z,7.2
2018-12-21T16:18:01.405Z,7.4
2018-12-21T16:23:02.296Z,7.4
2018-12-21T16:28:06.395Z,7.4
2018-12-21T16:33:01.458Z,7.3
2018-12-21T16:38:01.409Z,7.6
2018-12-21T16:43:06.552Z,7.6
2018-12-21T16:48:06.396Z,7.8
2018-12-21T16:53:01.487Z,7.8
2018-12-21T16:58:01.424Z,8.0
2018-12-21T17:03:01.485Z,7.6
2018-12-21T17:08:01.424Z,6.9
2018-12-21T17:13:01.548Z,6.7
2018-12-21T17:18:01.424Z,6.7
2018-12-21T17:23:01.492Z,6.5
2018-12-21T17:28:06.729Z,6.4
2018-12-21T17:33:01.487Z,6.5
2018-12-21T17:38:01.418Z,6.4
2018-12-21T17:43:06.610Z,6.2
2018-12-21T17:53:01.451Z,5.6
2018-12-21T18:03:01.517Z,5.2
2018-12-21T18:08:06.399Z,5.1
2018-12-21T18:13:01.426Z,5.1
2018-12-21T18:18:01.391Z,4.8
2018-12-21T18:23:01.425Z,5.4
2018-12-21T18:28:01.398Z,5.2
2018-12-21T18:33:11.303Z,4.9
2018-12-21T18:43:01.467Z,5.2
2018-12-21T18:49:01.392Z,4.6
2018-12-21T18:54:06.397Z,4.6
2018-12-21T18:59:06.397Z,4.5
2018-12-21T19:04:07.236Z,4.2
2018-12-21T19:09:06.464Z,4.1
2018-12-21T19:14:01.432Z,4.0
2018-12-21T19:19:01.395Z,3.7
2018-12-21T19:24:01.470Z,3.1
2018-12-21T19:29:01.401Z,2.7
2018-12-21T19:34:01.467Z,2.6
2018-12-21T19:39:01.446Z,2.7
2018-12-21T19:44:01.520Z,2.8
2018-12-21T19:49:01.392Z,3.0
2018-12-21T20:04:01.457Z,2.8
2018-12-21T20:14:01.420Z,3.4
2018-12-21T20:19:06.476Z,3.2
2018-12-21T20:29:01.391Z,3.6
2018-12-21T20:34:01.468Z,3.6
2018-12-21T20:39:01.516Z,3.9
2018-12-21T20:44:01.461Z,4.3
2018-12-21T20:49:06.398Z,4.5
2018-12-21T20:54:01.540Z,4.6
2018-12-21T20:59:01.388Z,4.7
2018-12-21T21:04:01.627Z,7.7
2018-12-21T21:14:01.549Z,8.3
2018-12-21T21:19:06.399Z,8.2
2018-12-21T21:24:06.460Z,8.4
2018-12-21T21:29:01.391Z,5.3
2018-12-21T21:34:01.524Z,5.3
2018-12-21T21:39:02.427Z,5.3
2018-12-21T21:44:01.462Z,6.0
2018-12-21T21:49:01.392Z,6.2
2018-12-21T21:54:01.397Z,6.8
2018-12-21T21:59:01.384Z,7.4
2018-12-21T22:04:01.577Z,7.1
2018-12-21T22:09:01.411Z,6.6
2018-12-21T22:14:01.451Z,6.7
2018-12-21T22:19:01.415Z,6.5
2018-12-21T22:24:01.482Z,6.2
2018-12-21T22:29:01.423Z,6.0
2018-12-21T22:34:01.487Z,6.2
2018-12-21T22:39:01.422Z,5.9
2018-12-21T22:44:01.490Z,5.5
2018-12-21T22:49:06.398Z,5.1
2018-12-21T22:54:01.558Z,5.2
2018-12-21T22:59:01.428Z,4.8
2018-12-21T23:04:01.428Z,4.6
2018-12-21T23:09:01.416Z,4.5
2018-12-21T23:14:01.577Z,4.5
2018-12-21T23:19:01.448Z,4.2
2018-12-21T23:24:01.493Z,4.0
2018-12-21T23:29:01.398Z,3.8
2018-12-21T23:34:06.467Z,3.8
2018-12-21T23:39:01.422Z,3.6
2018-12-21T23:44:01.550Z,3.6
2018-12-21T23:49:01.420Z,3.2
2018-12-21T23:54:01.457Z,3.4
2018-12-21T23:59:06.403Z,3.1
